Time;durP1;ratioP1;P1;durP2;ratioP2;P2;SDS_P1;SDS_P2;PMS_P1;PMS_P2;Temp;Humidity;BMP_temperature;BMP_pressure;BME280_temperature;BME280_humidity;BME280_pressure;Samples;Min_cycle;Max_cycle;Signal;HPM_P1;HPM_P2
2023/02/14 00:00:53;;;;;;;12.23;4.18;;;;;;;16.17;49.35;101227.84;7389937;19;20015;-57
2023/02/14 00:03:19;;;;;;;9.63;3.08;;;;;;;21.34;40.13;101218.97;7397680;19;20325;-57
2023/02/14 00:05:45;;;;;;;1.95;1.88;;;;;;;21.18;38.52;101219.75;7394908;19;20002;-58
2023/02/14 00:08:11;;;;;;;7.63;3.28;;;;;;;9.71;49.67;101240.81;7394650;19;20104;-57
2023/02/14 00:10:37;;;;;;;20.08;3.60;;;;;;;19.55;43.52;101231.13;7397275;19;20010;-57
2023/02/14 00:13:04;;;;;;;2.13;1.67;;;;;;;21.28;38.81;101215.38;7393849;19;20015;-57
2023/02/14 00:15:30;;;;;;;5.78;1.35;;;;;;;12.48;46.43;101234.63;7391571;19;20010;-58
2023/02/14 00:17:59;;;;;;;6.75;2.10;;;;;;;8.95;54.61;101242.25;7395372;19;20010;-57
2023/02/14 00:20:27;;;;;;;11.15;2.25;;;;;;;16.90;44.26;101219.47;7396749;19;20019;-58
2023/02/14 00:22:53;;;;;;;13.63;3.08;;;;;;;17.09;40.95;101212.38;7394123;19;20018;-59
2023/02/14 00:25:19;;;;;;;10.40;3.85;;;;;;;10.46;52.87;101222.94;7396031;19;20023;-58
2023/02/14 00:27:45;;;;;;;5.35;2.70;;;;;;;6.19;84.32;101238.13;7393760;19;20007;-58
2023/02/14 00:30:12;;;;;;;11.20;4.82;;;;;;;5.41;97.89;101247.13;7395120;19;20082;-58
2023/02/14 00:32:40;;;;;;;5.93;2.65;;;;;;;6.90;100.00;101241.56;7392266;19;20495;-58
2023/02/14 00:35:07;;;;;;;6.70;3.38;;;;;;;4.91;100.00;101232.06;7391217;19;20815;-58
2023/02/14 00:37:34;;;;;;;9.02;4.38;;;;;;;4.71;100.00;101231.00;7391909;19;20007;-58
2023/02/14 00:40:00;;;;;;;16.17;3.75;;;;;;;4.56;100.00;101233.84;7394028;19;20038;-59
2023/02/14 00:42:26;;;;;;;7.18;2.42;;;;;;;4.49;100.00;101239.38;7391202;19;20045;-58
2023/02/14 00:44:52;;;;;;;11.90;1.95;;;;;;;4.41;100.00;101240.59;7394208;19;20014;-58
2023/02/14 00:47:19;;;;;;;6.60;3.15;;;;;;;17.79;53.55;101204.72;7391033;19;20017;-58
2023/02/14 00:49:45;;;;;;;10.18;2.25;;;;;;;19.32;46.34;101212.41;7393674;19;20010;-59
2023/02/14 00:52:11;;;;;;;26.80;4.60;;;;;;;21.53;39.80;101222.78;7396320;19;20324;-58
2023/02/14 00:54:38;;;;;;;15.65;4.45;;;;;;;21.78;38.82;101211.13;7392755;19;20408;-60
2023/02/14 00:57:04;;;;;;;4.32;3.47;;;;;;;21.59;38.31;101217.91;7390438;19;20031;-58
2023/02/14 00:59:31;;;;;;;6.90;2.30;;;;;;;9.93;55.00;101238.28;7393683;19;20045;-58
2023/02/14 01:01:57;;;;;;;7.53;2.47;;;;;;;19.58;41.11;101224.44;7396007;19;20328;-58
2023/02/14 01:04:23;;;;;;;8.63;2.60;;;;;;;12.97;49.54;101227.19;7396601;19;20469;-58
2023/02/14 01:06:49;;;;;;;12.95;5.30;;;;;;;4.90;83.90;101244.28;7396022;19;20006;-59
2023/02/14 01:09:15;;;;;;;16.58;5.13;;;;;;;15.60;65.14;101221.53;7392426;19;20011;-59
2023/02/14 01:11:42;;;;;;;2.53;2.25;;;;;;;20.23;43.93;101216.00;7390503;19;20046;-59
2023/02/14 01:14:08;;;;;;;23.77;3.20;;;;;;;12.84;48.13;101241.22;7403646;19;20086;-58
2023/02/14 01:16:35;;;;;;;12.27;3.00;;;;;;;20.54;39.30;101217.88;7398547;19;20062;-58
2023/02/14 01:19:01;;;;;;;10.40;4.32;;;;;;;13.18;46.11;101236.78;7399629;19;20006;-59
2023/02/14 01:21:31;;;;;;;8.07;2.40;;;;;;;8.91;63.23;101238.75;7399739;19;20011;-59
2023/02/14 01:24:00;;;;;;;9.27;4.28;;;;;;;19.14;46.13;101210.00;7402601;19;20358;-59
2023/02/14 01:26:28;;;;;;;8.02;1.95;;;;;;;13.19;48.10;101216.72;7403943;19;20463;-63
2023/02/14 01:28:54;;;;;;;4.43;2.35;;;;;;;20.39;40.63;101206.78;7397985;19;20018;-63
2023/02/14 01:31:29;;;;;;;20.55;3.45;;;;;;;17.31;42.73;101207.09;7402519;19;20019;-63
2023/02/14 01:33:57;;;;;;;3.03;2.00;;;;;;;21.88;37.63;101188.94;7402609;19;20369;-63
2023/02/14 01:36:27;;;;;;;17.52;2.92;;;;;;;21.94;36.81;101194.59;7398028;19;20017;-63
2023/02/14 01:39:01;;;;;;;4.78;2.30;;;;;;;20.90;37.96;101192.19;7397987;19;20015;-63
2023/02/14 01:41:31;;;;;;;2.72;2.53;;;;;;;22.18;36.02;101180.53;7399361;19;20476;-63
2023/02/14 01:44:01;;;;;;;42.47;5.70;;;;;;;22.84;35.13;101168.75;7397868;19;20010;-63
2023/02/14 01:46:33;;;;;;;6.67;3.13;;;;;;;17.27;36.87;101172.72;7400709;19;20027;-63
2023/02/14 01:49:09;;;;;;;7.00;3.35;;;;;;;6.44;73.60;101219.25;7401489;19;20083;-62
2023/02/14 01:51:39;;;;;;;2.75;2.55;;;;;;;20.29;41.71;101197.75;7398650;19;20019;-62
2023/02/14 01:54:08;;;;;;;2.75;1.77;;;;;;;22.06;36.95;101191.19;7403278;19;20466;-62
2023/02/14 01:56:48;;;;;;;11.40;4.63;;;;;;;22.85;35.04;101186.56;7398402;19;20038;-62
2023/02/14 01:59:22;;;;;;;7.47;2.40;;;;;;;15.31;43.85;101201.69;7397985;19;20010;-62
2023/02/14 02:01:50;;;;;;;20.83;4.22;;;;;;;15.12;44.93;101217.81;7398615;19;20385;-62
2023/02/14 02:04:22;;;;;;;15.20;3.75;;;;;;;13.92;47.89;101200.09;7401302;19;20010;-62
2023/02/14 02:06:54;;;;;;;8.07;3.75;;;;;;;15.01;46.66;101214.75;7398214;19;20039;-63
2023/02/14 02:09:27;;;;;;;5.57;2.65;;;;;;;13.20;48.97;101207.09;7397547;19;20015;-63
2023/02/14 02:11:54;;;;;;;23.88;3.13;;;;;;;12.18;51.67;101211.78;7394846;19;20018;-63
2023/02/14 02:14:21;;;;;;;13.65;2.95;;;;;;;12.75;50.73;101198.47;7402423;19;20019;-63
2023/02/14 02:17:03;;;;;;;5.93;2.80;;;;;;;13.92;49.42;101194.50;7401442;19;20006;-63
2023/02/14 02:19:29;;;;;;;8.82;2.60;;;;;;;14.01;49.04;101197.31;7395665;19;20321;-63
2023/02/14 02:22:03;;;;;;;4.78;3.10;;;;;;;14.06;48.36;101205.84;7400089;19;20015;-63
2023/02/14 02:24:51;;;;;;;3.10;1.77;;;;;;;14.13;48.31;101210.38;7400157;19;20114;-63
2023/02/14 02:27:27;;;;;;;4.75;1.80;;;;;;;11.70;52.23;101212.25;7397421;19;20018;-59
2023/02/14 02:30:15;;;;;;;7.25;2.92;;;;;;;13.22;50.52;101201.03;7397877;19;20007;-63
2023/02/14 02:32:47;;;;;;;15.52;2.92;;;;;;;13.30;50.38;101203.09;7398994;19;20017;-63
2023/02/14 02:35:24;;;;;;;2.42;2.33;;;;;;;12.91;50.48;101189.84;7395340;19;20031;-85
2023/02/14 02:38:16;;;;;;;3.83;2.22;;;;;;;12.91;51.02;101206.63;7394162;19;20010;-85
2023/02/14 02:41:12;;;;;;;12.07;2.83;;;;;;;13.78;49.57;101211.91;7398882;19;20018;-86
2023/02/14 02:44:16;;;;;;;15.82;3.58;;;;;;;12.69;51.48;101211.50;7393906;19;20021;-86
2023/02/14 02:47:45;;;;;;;5.82;2.08;;;;;;;11.78;51.67;101221.94;7396036;19;20022;-85
2023/02/14 02:53:31;;;;;;;20.77;3.80;;;;;;;12.94;51.22;101200.91;7393322;19;20093;-86
2023/02/14 02:59:01;;;;;;;7.32;2.55;;;;;;;15.33;47.79;101207.63;7396069;19;20010;-86
2023/02/14 03:01:38;;;;;;;15.90;4.80;;;;;;;15.66;46.95;101211.19;7396894;19;20011;-85
2023/02/14 03:06:55;;;;;;;3.13;2.55;;;;;;;13.88;48.97;101217.03;7396343;19;20018;-86
2023/02/14 03:09:21;;;;;;;32.47;2.95;;;;;;;16.29;45.35;101207.88;7395581;19;20464;-86
2023/02/14 03:12:50;;;;;;;5.47;3.75;;;;;;;16.81;45.18;101203.47;7395742;19;20018;-87
2023/02/14 03:15:37;;;;;;;12.55;4.95;;;;;;;17.56;44.07;101200.84;7393542;19;20712;-87
2023/02/14 03:18:12;;;;;;;6.65;2.35;;;;;;;14.36;47.75;101210.53;7394689;19;20022;-87
2023/02/14 03:21:14;;;;;;;10.75;3.80;;;;;;;15.39;48.49;101202.91;7397956;19;20014;-87
2023/02/14 03:24:01;;;;;;;;;;;;;;;15.71;47.60;101213.34;7394455;19;20015;-87
2023/02/14 03:26:49;;;;;;;14.32;2.65;;;;;;;16.14;47.55;101201.47;7394920;19;19923;-87
2023/02/14 03:29:46;;;;;;;12.20;4.25;;;;;;;11.91;52.48;101208.72;7394892;19;20074;-87
2023/02/14 03:32:23;;;;;;;10.88;4.13;;;;;;;13.13;58.26;101182.22;7392359;19;20372;-87
2023/02/14 03:34:49;;;;;;;4.10;2.45;;;;;;;17.81;48.27;101176.81;7391696;19;20357;-86
2023/02/14 03:37:31;;;;;;;21.50;4.43;;;;;;;16.69;48.04;101173.63;7393015;19;20468;-86
2023/02/14 03:40:01;;;;;;;7.18;2.60;;;;;;;16.24;50.51;101160.00;7394867;19;20015;-88
2023/02/14 03:42:42;;;;;;;1.85;1.55;;;;;;;16.40;49.76;101160.28;7396290;19;20014;-88
2023/02/14 03:45:15;;;;;;;3.85;1.95;;;;;;;15.84;49.88;101154.88;7394261;19;20022;-86
2023/02/14 03:47:43;;;;;;;17.60;3.50;;;;;;;16.04;50.07;101149.41;7395165;19;20023;-90
2023/02/14 03:50:19;;;;;;;11.18;4.82;;;;;;;13.60;53.38;101163.03;7398233;19;20042;-90
2023/02/14 03:52:50;;;;;;;7.32;2.53;;;;;;;16.86;49.92;101154.97;7400910;19;20021;-90
2023/02/14 03:55:23;;;;;;;10.07;2.70;;;;;;;15.83;51.01;101153.34;7396388;19;20025;-86
2023/02/14 03:58:02;;;;;;;10.40;4.15;;;;;;;15.02;50.42;101146.97;7393975;19;20026;-87
2023/02/14 04:00:30;;;;;;;29.02;6.00;;;;;;;16.79;50.40;101143.31;7397652;19;20090;-86
2023/02/14 04:03:02;;;;;;;9.73;3.60;;;;;;;17.45;48.69;101138.69;7394320;19;20501;-86
2023/02/14 04:05:29;;;;;;;10.20;2.10;;;;;;;17.97;48.75;101128.34;7393714;19;20122;-86
2023/02/14 04:07:57;;;;;;;17.83;5.22;;;;;;;19.70;45.53;101134.03;7395259;19;20564;-85
2023/02/14 04:10:25;;;;;;;15.20;4.60;;;;;;;18.27;47.08;101135.31;7396672;19;20010;-83
2023/02/14 04:12:52;;;;;;;7.53;3.42;;;;;;;18.98;46.33;101134.41;7394880;19;20473;-88
2023/02/14 04:15:18;;;;;;;7.30;3.90;;;;;;;18.78;46.50;101132.44;7395411;19;20018;-89
2023/02/14 04:20:29;;;;;;;8.63;3.25;;;;;;;17.51;49.86;101142.38;7399000;19;20043;-93
2023/02/14 04:22:56;;;;;;;4.68;2.65;;;;;;;19.56;46.24;101135.78;7390246;19;20466;-82
2023/02/14 04:25:22;;;;;;;10.98;2.35;;;;;;;16.40;49.59;101163.09;7392048;19;20029;-82
2023/02/14 04:27:48;;;;;;;9.98;4.57;;;;;;;17.63;50.51;101144.06;7391752;19;20026;-82
2023/02/14 04:30:16;;;;;;;21.30;3.38;;;;;;;14.28;56.61;101144.03;7392228;19;20027;-83
2023/02/14 04:32:43;;;;;;;18.80;3.58;;;;;;;20.98;45.53;101141.47;7395260;19;20014;-83
2023/02/14 04:35:10;;;;;;;11.45;3.40;;;;;;;16.33;49.62;101149.44;7389701;19;20018;-82
2023/02/14 04:37:36;;;;;;;10.23;4.25;;;;;;;17.48;51.03;101143.31;7390291;19;20021;-85
2023/02/14 04:40:03;;;;;;;11.30;4.75;;;;;;;20.12;46.21;101150.91;7396615;19;20006;-87
2023/02/14 04:42:29;;;;;;;12.38;3.92;;;;;;;20.92;44.54;101135.03;7393579;19;20010;-86
2023/02/14 04:44:55;;;;;;;18.85;2.92;;;;;;;21.08;44.24;101146.38;7392419;19;20007;-86
2023/02/14 04:47:21;;;;;;;14.25;3.17;;;;;;;21.37;43.50;101149.91;7393500;19;20015;-86
2023/02/14 04:49:48;;;;;;;10.68;3.90;;;;;;;21.74;42.96;101145.38;7394195;19;20010;-86
2023/02/14 04:52:14;;;;;;;19.17;4.55;;;;;;;22.20;41.81;101143.91;7393925;19;20007;-86
2023/02/14 04:54:40;;;;;;;6.90;3.08;;;;;;;21.23;43.00;101148.13;7394536;19;20017;-86
2023/02/14 04:57:06;;;;;;;6.40;2.10;;;;;;;20.81;43.55;101147.13;7391983;19;20349;-86
2023/02/14 04:59:32;;;;;;;11.23;3.20;;;;;;;19.99;43.87;101139.31;7393185;19;20039;-86
2023/02/14 05:01:58;;;;;;;12.77;3.47;;;;;;;20.72;43.69;101144.56;7391873;19;20067;-85
2023/02/14 05:04:25;;;;;;;7.47;2.78;;;;;;;21.92;41.70;101141.22;7391362;19;20021;-86
2023/02/14 05:06:51;;;;;;;18.67;3.35;;;;;;;20.96;43.02;101147.63;7393665;19;20048;-84
2023/02/14 05:09:17;;;;;;;23.33;4.53;;;;;;;21.06;42.61;101157.44;7394085;19;20021;-86
2023/02/14 05:11:43;;;;;;;14.43;5.07;;;;;;;21.09;43.39;101158.47;7392218;19;20025;-85
2023/02/14 05:14:09;;;;;;;12.88;4.60;;;;;;;20.85;43.18;101161.03;7392653;19;20019;-86
2023/02/14 05:16:37;;;;;;;18.98;4.32;;;;;;;21.19;43.20;101178.78;7392159;19;20018;-86
2023/02/14 05:19:03;;;;;;;9.38;3.17;;;;;;;21.60;42.99;101166.34;7393683;19;20011;-85
2023/02/14 05:21:31;;;;;;;16.45;3.65;;;;;;;13.95;57.04;101188.75;7394345;19;20011;-86
2023/02/14 05:23:59;;;;;;;15.35;3.08;;;;;;;22.03;44.77;101152.50;7392213;19;20022;-86
2023/02/14 05:26:25;;;;;;;15.25;3.45;;;;;;;23.03;43.13;101161.09;7392507;19;20015;-86
2023/02/14 05:28:51;;;;;;;18.08;5.75;;;;;;;23.81;40.74;101166.72;7392837;19;20014;-86
2023/02/14 05:31:18;;;;;;;25.30;5.22;;;;;;;23.65;40.22;101159.13;7395129;19;20010;-85
2023/02/14 05:33:44;;;;;;;17.23;4.95;;;;;;;21.62;43.31;101165.81;7390425;19;20112;-86
2023/02/14 05:36:10;;;;;;;24.45;4.75;;;;;;;18.06;44.52;101165.59;7393113;19;20019;-86
2023/02/14 05:38:36;;;;;;;10.77;5.25;;;;;;;20.04;55.40;101172.47;7390642;19;20015;-86
2023/02/14 05:41:02;;;;;;;23.92;4.20;;;;;;;22.72;45.23;101169.38;7394796;19;20007;-86
2023/02/14 05:43:29;;;;;;;16.92;4.70;;;;;;;21.87;43.82;101159.03;7389635;19;20089;-86
2023/02/14 05:45:56;;;;;;;10.93;3.35;;;;;;;22.72;42.94;101163.69;7391027;19;20445;-86
2023/02/14 05:48:23;;;;;;;8.45;4.05;;;;;;;24.48;39.79;101162.97;7390029;19;20022;-86
2023/02/14 05:50:49;;;;;;;19.27;3.50;;;;;;;24.66;39.33;101173.56;7391746;19;20023;-87
2023/02/14 05:53:15;;;;;;;15.32;3.22;;;;;;;24.45;39.06;101181.16;7389798;19;20025;-83
2023/02/14 05:55:41;;;;;;;7.97;3.83;;;;;;;24.35;38.80;101168.59;7391820;19;20022;-83
2023/02/14 05:58:08;;;;;;;10.55;4.40;;;;;;;24.56;38.51;101163.88;7390002;19;20511;-83
2023/02/14 06:00:34;;;;;;;24.92;5.65;;;;;;;23.38;39.55;101165.94;7399059;19;20474;-83
2023/02/14 06:03:00;;;;;;;23.50;4.18;;;;;;;23.79;39.23;101160.78;7396509;19;20547;-82
2023/02/14 06:05:26;;;;;;;11.77;4.53;;;;;;;23.51;39.51;101157.50;7396034;19;20114;-82
2023/02/14 06:07:52;;;;;;;3.42;2.60;;;;;;;23.30;39.69;101162.88;7395999;19;20095;-82
2023/02/14 06:10:20;;;;;;;15.63;4.40;;;;;;;23.43;39.27;101173.63;7395813;19;20014;-82
2023/02/14 06:12:48;;;;;;;11.43;4.13;;;;;;;23.12;39.59;101157.91;7396109;19;20023;-82
2023/02/14 06:15:14;;;;;;;13.70;4.75;;;;;;;22.51;40.43;101155.56;7398896;19;20023;-83
2023/02/14 06:17:40;;;;;;;11.48;2.90;;;;;;;23.39;38.91;101158.94;7399036;19;20429;-85
2023/02/14 06:20:10;;;;;;;10.85;4.38;;;;;;;23.54;38.97;101155.69;7400285;19;20010;-84
2023/02/14 06:22:38;;;;;;;7.35;4.95;;;;;;;23.34;39.15;101154.09;7399560;19;20026;-84
2023/02/14 06:25:04;;;;;;;15.82;3.90;;;;;;;23.02;39.53;101162.38;7392811;19;20480;-83
2023/02/14 06:27:31;;;;;;;3.05;2.83;;;;;;;23.29;39.36;101157.72;7394929;19;20014;-84
2023/02/14 06:29:57;;;;;;;6.60;3.47;;;;;;;22.96;39.37;101158.81;7397831;19;20017;-83
2023/02/14 06:32:24;;;;;;;13.00;3.90;;;;;;;22.94;39.25;101160.66;7393477;19;20018;-83
2023/02/14 06:34:50;;;;;;;22.25;5.10;;;;;;;23.07;39.28;101163.63;7393585;19;20490;-84
2023/02/14 06:37:16;;;;;;;15.63;4.20;;;;;;;22.18;40.17;101158.59;7391947;19;20018;-83
2023/02/14 06:39:42;;;;;;;6.63;2.97;;;;;;;22.43;39.88;101168.78;7393207;19;20014;-83
2023/02/14 06:42:08;;;;;;;14.52;4.60;;;;;;;22.46;39.86;101173.38;7393652;19;20019;-83
2023/02/14 06:44:34;;;;;;;6.60;3.45;;;;;;;22.23;40.11;101166.31;7393151;19;20022;-83
2023/02/14 06:47:01;;;;;;;15.00;3.30;;;;;;;22.19;40.00;101157.31;7395621;19;20011;-84
2023/02/14 06:49:27;;;;;;;8.15;4.50;;;;;;;22.14;39.77;101165.84;7394428;19;20014;-83
2023/02/14 06:51:53;;;;;;;11.45;5.03;;;;;;;21.61;40.22;101167.09;7396071;19;20018;-84
2023/02/14 06:54:19;;;;;;;22.92;6.10;;;;;;;19.67;42.69;101175.41;7394463;19;20085;-84
2023/02/14 06:56:46;;;;;;;10.95;5.43;;;;;;;19.10;44.01;101177.59;7395578;19;20488;-83
2023/02/14 06:59:12;;;;;;;22.00;4.55;;;;;;;19.41;43.64;101175.53;7394520;19;20007;-84
2023/02/14 07:01:38;;;;;;;6.63;3.72;;;;;;;18.86;44.13;101183.59;7394970;19;20569;-83
2023/02/14 07:04:04;;;;;;;4.22;3.15;;;;;;;18.57;44.94;101181.78;7392490;19;20030;-83
2023/02/14 07:06:31;;;;;;;31.85;3.95;;;;;;;18.64;45.19;101180.56;7392173;19;20026;-83
2023/02/14 07:08:57;;;;;;;4.97;2.70;;;;;;;19.90;44.20;101182.72;7392678;19;20025;-83
2023/02/14 07:11:23;;;;;;;2.00;1.77;;;;;;;20.43;42.79;101184.69;7395523;19;20039;-83
2023/02/14 07:13:49;;;;;;;7.95;2.35;;;;;;;20.05;43.28;101185.34;7392097;19;20372;-83
2023/02/14 07:16:15;;;;;;;32.17;3.90;;;;;;;20.22;43.19;101186.19;7392068;19;20017;-85
2023/02/14 07:18:41;;;;;;;12.57;3.13;;;;;;;21.21;42.05;101190.38;7394752;19;20006;-84
2023/02/14 07:21:07;;;;;;;20.38;4.50;;;;;;;21.22;41.86;101183.44;7396895;19;20030;-84
2023/02/14 07:23:34;;;;;;;8.82;2.10;;;;;;;20.84;42.53;101194.25;7392358;19;20485;-83
2023/02/14 07:26:01;;;;;;;5.53;2.63;;;;;;;18.77;46.61;101200.69;7394657;19;20015;-84
2023/02/14 07:28:29;;;;;;;15.07;4.95;;;;;;;21.45;41.78;101194.22;7392444;19;20018;-83
2023/02/14 07:30:59;;;;;;;11.90;4.07;;;;;;;21.76;41.54;101190.25;7395352;19;20023;-84
2023/02/14 07:33:26;;;;;;;12.77;3.97;;;;;;;20.15;42.48;101201.56;7392836;19;20035;-84
2023/02/14 07:35:52;;;;;;;9.52;3.45;;;;;;;22.70;40.60;101203.22;7393690;19;20014;-83
2023/02/14 07:38:18;;;;;;;7.88;3.60;;;;;;;23.07;39.33;101197.72;7391496;19;20588;-83
2023/02/14 07:40:44;;;;;;;16.45;3.83;;;;;;;23.08;38.93;101193.59;7394394;19;20010;-84
2023/02/14 07:43:11;;;;;;;7.55;3.17;;;;;;;22.71;39.34;101199.06;7392618;19;20492;-83
2023/02/14 07:45:37;;;;;;;2.97;2.78;;;;;;;22.33;39.82;101192.31;7392378;19;20094;-84
2023/02/14 07:48:03;;;;;;;17.70;6.75;;;;;;;22.33;39.92;101201.59;7392247;19;20022;-83
2023/02/14 07:50:29;;;;;;;10.70;2.75;;;;;;;22.44;40.14;101197.91;7395271;19;20022;-84
2023/02/14 07:52:56;;;;;;;19.48;4.50;;;;;;;19.92;43.32;101202.78;7391722;19;20030;-83
2023/02/14 07:55:23;;;;;;;10.88;4.40;;;;;;;21.92;40.47;101197.94;7392832;19;20029;-83
2023/02/14 07:57:50;;;;;;;5.70;2.40;;;;;;;22.33;40.14;101189.47;7393237;19;20018;-84
2023/02/14 08:00:17;;;;;;;16.63;3.95;;;;;;;22.42;39.58;101195.63;7395456;19;20033;-84
2023/02/14 08:02:44;;;;;;;7.72;3.22;;;;;;;22.38;39.31;101194.34;7394520;19;20481;-83
2023/02/14 08:05:10;;;;;;;12.88;1.90;;;;;;;21.79;39.96;101184.31;7398099;19;20027;-94
2023/02/14 08:07:36;;;;;;;13.30;4.40;;;;;;;20.65;42.43;101196.03;7401076;19;20074;-90
2023/02/14 08:10:03;;;;;;;10.70;4.07;;;;;;;21.53;40.66;101217.91;7398983;19;20059;-89
2023/02/14 08:17:58;;;;;;;8.10;2.85;;;;;;;23.55;38.97;101192.13;7395791;19;20050;-91
2023/02/14 08:20:25;;;;;;;8.23;3.78;;;;;;;23.97;38.20;101199.88;7394075;19;20355;-93
2023/02/14 08:22:51;;;;;;;13.20;3.20;;;;;;;24.05;38.12;101195.16;7392182;19;20023;-94
2023/02/14 08:25:17;;;;;;;12.30;3.83;;;;;;;24.06;38.12;101201.63;7395504;19;20028;-93
2023/02/14 08:27:43;;;;;;;3.22;1.88;;;;;;;24.54;37.59;101192.13;7395441;19;20085;-94
2023/02/14 08:30:10;;;;;;;7.55;3.17;;;;;;;23.72;37.67;101218.28;7397287;19;20011;-94
2023/02/14 08:35:34;;;;;;;14.50;4.40;;;;;;;24.55;37.38;101202.22;7389244;19;20017;-58
2023/02/14 08:38:00;;;;;;;5.40;2.38;;;;;;;24.82;36.90;101209.56;7399137;19;20014;-58
2023/02/14 08:40:27;;;;;;;32.70;4.95;;;;;;;25.08;36.87;101206.06;7394903;19;20023;-58
2023/02/14 08:42:53;;;;;;;7.40;3.60;;;;;;;25.76;35.70;101205.06;7394333;19;20018;-58
2023/02/14 08:45:20;;;;;;;20.45;4.97;;;;;;;25.21;35.78;101215.41;7392452;19;20039;-58
2023/02/14 08:47:46;;;;;;;11.23;2.58;;;;;;;25.03;36.31;101224.81;7398741;19;20025;-58
2023/02/14 08:50:15;;;;;;;9.45;3.20;;;;;;;24.84;36.76;101221.97;7393844;19;20017;-58
2023/02/14 08:52:45;;;;;;;3.15;2.88;;;;;;;24.39;36.77;101217.47;7395096;19;20070;-58
2023/02/14 08:55:12;;;;;;;10.30;2.78;;;;;;;24.07;37.01;101218.16;7399199;19;20014;-59
2023/02/14 08:57:39;;;;;;;17.77;3.50;;;;;;;24.92;36.42;101222.13;7396614;19;20015;-58
2023/02/14 09:00:06;;;;;;;22.60;4.18;;;;;;;24.81;36.60;101225.16;7394603;19;20021;-58
2023/02/14 09:02:33;;;;;;;8.68;3.38;;;;;;;24.54;36.80;101217.75;7394843;19;19999;-58
2023/02/14 09:04:59;;;;;;;13.45;4.40;;;;;;;24.75;37.02;101210.97;7398797;19;20017;-58
2023/02/14 09:07:25;;;;;;;11.82;4.43;;;;;;;24.79;36.52;101204.97;7393566;19;20007;-58
2023/02/14 09:09:52;;;;;;;9.75;2.72;;;;;;;26.67;34.75;101221.25;7394109;19;20010;-58
2023/02/14 09:12:18;;;;;;;8.82;2.55;;;;;;;26.30;34.52;101213.78;7391566;19;20019;-58
2023/02/14 09:14:44;;;;;;;13.82;3.35;;;;;;;25.52;35.51;101214.59;7397409;19;20501;-58
2023/02/14 09:17:15;;;;;;;17.60;4.65;;;;;;;23.19;38.07;101216.25;7394362;19;20024;-58
2023/02/14 09:19:41;;;;;;;8.27;3.07;;;;;;;23.29;38.13;101208.91;7392764;19;20019;-58
2023/02/14 09:22:09;;;;;;;8.77;3.33;;;;;;;23.55;38.18;101206.34;7392681;19;20014;-59
2023/02/14 09:24:38;;;;;;;15.55;4.25;;;;;;;24.35;37.65;101200.69;7395809;19;20014;-59
2023/02/14 09:27:05;;;;;;;10.60;3.63;;;;;;;26.12;34.62;101196.78;7392590;19;20014;-58
2023/02/14 09:29:32;;;;;;;7.05;2.53;;;;;;;25.94;35.05;101204.19;7395311;19;20006;-59
2023/02/14 09:32:00;;;;;;;6.30;2.63;;;;;;;25.90;35.38;101205.81;7395710;19;20070;-58
2023/02/14 09:39:57;;;;;;;10.73;4.20;;;;;;;11.31;78.91;101233.06;7398848;19;20614;-55
2023/02/14 09:42:36;;;;;;;7.88;2.85;;;;;;;9.67;100.00;101225.44;7400281;19;20035;-55
2023/02/14 09:45:12;;;;;;;20.40;5.32;;;;;;;20.35;54.54;101212.72;7403894;19;20014;-55
2023/02/14 09:47:44;;;;;;;8.15;3.40;;;;;;;24.12;44.21;101205.16;7400401;19;20467;-55
2023/02/14 09:50:17;;;;;;;2.97;2.28;;;;;;;24.22;41.75;101208.38;7399558;19;20039;-55
2023/02/14 09:52:48;;;;;;;3.92;2.25;;;;;;;25.08;40.86;101209.66;7399957;19;20010;-55
2023/02/14 09:55:15;;;;;;;13.23;3.80;;;;;;;25.45;39.32;101203.84;7398452;19;20484;-55
2023/02/14 09:57:54;;;;;;;19.83;4.32;;;;;;;22.91;40.91;101215.69;7400191;19;20489;-55
2023/02/14 10:00:41;;;;;;;18.83;6.45;;;;;;;18.85;49.00;101224.38;7399979;19;20348;-55
2023/02/14 10:03:25;;;;;;;17.67;3.55;;;;;;;22.13;46.90;101216.19;7399917;19;20010;-55
2023/02/14 10:06:10;;;;;;;6.43;3.38;;;;;;;24.56;42.85;101218.00;7399067;19;20014;-55
2023/02/14 10:08:48;;;;;;;12.32;2.70;;;;;;;16.25;51.59;101229.78;7398954;19;20018;-55
2023/02/14 10:11:19;;;;;;;14.77;3.50;;;;;;;12.94;78.80;101253.25;7397681;19;20015;-55
2023/02/14 10:13:51;;;;;;;10.15;3.38;;;;;;;12.18;84.64;101250.88;7400583;19;20361;-57
2023/02/14 10:16:31;;;;;;;6.80;2.88;;;;;;;12.25;87.84;101254.63;7398944;19;20018;-57
2023/02/14 10:18:57;;;;;;;11.98;3.58;;;;;;;6.47;100.00;101273.75;7397424;19;20014;-58
2023/02/14 10:21:38;;;;;;;9.75;3.42;;;;;;;16.31;80.04;101246.75;7398318;19;20018;-58
2023/02/14 10:24:17;;;;;;;6.15;2.25;;;;;;;14.41;67.75;101256.78;7399093;19;20014;-57
2023/02/14 10:26:47;;;;;;;14.93;4.72;;;;;;;10.94;100.00;101252.53;7397936;19;20014;-57
2023/02/14 10:29:18;;;;;;;6.05;2.50;;;;;;;10.40;100.00;101252.53;7400220;19;20031;-58
2023/02/14 10:31:55;;;;;;;6.00;2.80;;;;;;;9.87;100.00;101253.94;7395767;19;20015;-57
2023/02/14 10:34:40;;;;;;;18.00;5.65;;;;;;;9.01;100.00;101254.41;7399680;19;20010;-57
2023/02/14 10:37:27;;;;;;;17.33;4.10;;;;;;;9.40;100.00;101236.06;7399176;19;20408;-57
2023/02/14 10:40:30;;;;;;;10.88;2.78;;;;;;;6.78;100.00;101231.84;7399401;19;20010;-57
2023/02/14 10:43:02;;;;;;;9.95;4.72;;;;;;;7.17;100.00;101239.59;7398727;19;20015;-57
2023/02/14 10:45:56;;;;;;;13.63;3.20;;;;;;;14.04;100.00;101218.78;7397005;19;20021;-58
2023/02/14 10:48:48;;;;;;;5.60;3.42;;;;;;;8.99;100.00;101220.72;7397440;19;20078;-55
2023/02/14 10:51:18;;;;;;;15.38;4.80;;;;;;;9.64;100.00;101226.31;7394733;19;20014;-55
2023/02/14 10:54:15;;;;;;;21.38;4.30;;;;;;;14.18;100.00;101213.34;7398227;19;20049;-55
2023/02/14 10:56:48;;;;;;;7.22;3.03;;;;;;;18.50;67.05;101213.25;7398187;19;20010;-55
2023/02/14 10:59:34;;;;;;;9.63;3.22;;;;;;;12.27;100.00;101230.63;7397663;19;20031;-55
2023/02/14 11:02:01;;;;;;;7.07;3.42;;;;;;;10.20;100.00;101233.19;7401538;19;20017;-56
2023/02/14 11:04:31;;;;;;;10.13;2.17;;;;;;;9.70;100.00;101219.78;7400426;19;20010;-55
2023/02/14 11:06:57;;;;;;;15.48;3.53;;;;;;;9.72;100.00;101219.34;7397872;19;20010;-55
2023/02/14 11:09:23;;;;;;;13.60;3.17;;;;;;;13.14;100.00;101214.56;7400279;19;20025;-55
2023/02/14 11:11:53;;;;;;;12.88;3.25;;;;;;;13.89;100.00;101209.44;7395078;19;20031;-56
2023/02/14 11:14:31;;;;;;;6.65;4.25;;;;;;;10.18;100.00;101212.59;7399671;19;20018;-56
2023/02/14 11:16:59;;;;;;;13.55;3.47;;;;;;;9.99;100.00;101217.03;7397322;19;20007;-56
2023/02/14 11:19:26;;;;;;;8.20;3.85;;;;;;;9.72;100.00;101209.00;7397570;19;20010;-56
2023/02/14 11:21:55;;;;;;;11.35;4.38;;;;;;;9.57;100.00;101207.03;7397725;19;20031;-56
2023/02/14 11:24:28;;;;;;;7.38;2.53;;;;;;;9.54;100.00;101207.88;7399994;19;20014;-56
2023/02/14 11:27:01;;;;;;;8.30;3.33;;;;;;;9.71;100.00;101206.66;7396777;19;20349;-55
2023/02/14 11:29:30;;;;;;;9.32;4.25;;;;;;;16.09;100.00;101193.69;7398014;19;20014;-56
2023/02/14 11:32:06;;;;;;;17.10;3.17;;;;;;;15.73;84.28;101191.94;7394319;19;20041;-56
2023/02/14 11:34:38;;;;;;;6.75;3.03;;;;;;;10.88;100.00;101193.00;7398824;19;20007;-56
2023/02/14 11:37:23;;;;;;;6.68;2.40;;;;;;;11.45;100.00;101192.78;7395557;19;20006;-56
2023/02/14 11:39:53;;;;;;;9.43;3.28;;;;;;;10.68;100.00;101184.84;7396958;19;20006;-55
2023/02/14 11:42:38;;;;;;;10.15;2.88;;;;;;;10.56;100.00;101183.63;7397346;19;20473;-56
2023/02/14 11:45:05;;;;;;;14.50;4.65;;;;;;;10.51;100.00;101184.16;7398890;19;20019;-56
2023/02/14 11:47:36;;;;;;;6.45;2.95;;;;;;;11.22;100.00;101190.31;7394883;19;20007;-56
2023/02/14 11:50:24;;;;;;;9.73;4.32;;;;;;;12.26;100.00;101183.59;7394443;19;20011;-55
2023/02/14 11:52:54;;;;;;;12.77;3.38;;;;;;;16.63;88.56;101176.31;7394236;19;20018;-56
2023/02/14 11:55:34;;;;;;;17.60;3.30;;;;;;;15.11;100.00;101171.38;7393741;19;20011;-55
2023/02/14 11:58:04;;;;;;;8.27;3.03;;;;;;;15.40;92.45;101167.97;7395456;19;20017;-56
2023/02/14 12:00:31;;;;;;;11.05;4.38;;;;;;;13.02;100.00;101165.03;7394720;19;20018;-56
2023/02/14 12:03:05;;;;;;;15.20;3.45;;;;;;;15.89;100.00;101154.22;7394521;19;20021;-56